Aughnacloy, United Kingdom
Current Conditions -  °F | °C
As of 12:20 PM on Sunday 25 Jan 2015 (Local Time) from EGAA Reporting Station
Broken Clouds Broken Clouds  
Wind Chill: 42°   Ceiling: 800
Heat Index: 48°   Visibility: 6mi
Dew Point: 46°   Wind: 16mph
Humidity: 93%   Direction: 220°SW
Pressure: 30.15"   Gusts: NA
Location:  54.41°N, 6.98°W
Report Text: EGAA 251220Z 22014KT 9999 BKN008 09/08 Q1021
Loading
Personal Weather Stations






























Interactive Weather Map New forecast layout! Learn more

10-Day Weather Forecast

Advertisements
Track Severe Weather on mobile